sensor_id;sensor_type;location;lat;lon;timestamp;pressure;altitude;pressure_sealevel;temperature;humidity
73245;BME280;61460;41.158;-73.238;2022-08-01T01:31:49;101055.36;;;27.55;43.22
73245;BME280;61460;41.158;-73.238;2022-08-01T01:34:19;101057.50;;;27.20;43.05
73245;BME280;61460;41.158;-73.238;2022-08-01T01:36:49;101050.42;;;26.78;41.97
73245;BME280;61460;41.158;-73.238;2022-08-01T01:39:19;101048.35;;;26.57;40.88
73245;BME280;61460;41.158;-73.238;2022-08-01T01:41:49;101051.10;;;26.38;39.84
73245;BME280;61460;41.158;-73.238;2022-08-01T01:44:19;101046.65;;;26.21;39.11
73245;BME280;61460;41.158;-73.238;2022-08-01T01:46:51;101043.23;;;26.04;38.21
73245;BME280;61460;41.158;-73.238;2022-08-01T01:49:22;101043.14;;;25.93;37.56
73245;BME280;61460;41.158;-73.238;2022-08-01T01:51:54;101041.86;;;25.84;36.82
73245;BME280;61460;41.158;-73.238;2022-08-01T01:54:28;101041.10;;;25.75;36.51
73245;BME280;61460;41.158;-73.238;2022-08-01T01:56:53;101038.13;;;25.38;36.61
73245;BME280;61460;41.158;-73.238;2022-08-01T01:59:27;101039.34;;;25.31;36.40
73245;BME280;61460;41.158;-73.238;2022-08-01T02:01:56;101034.77;;;25.16;36.14
73245;BME280;61460;41.158;-73.238;2022-08-01T02:04:27;101035.37;;;25.10;36.01
73245;BME280;61460;41.158;-73.238;2022-08-01T02:06:56;101036.66;;;24.97;36.08
73245;BME280;61460;41.158;-73.238;2022-08-01T02:09:27;101040.32;;;25.09;35.65
73245;BME280;61460;41.158;-73.238;2022-08-01T02:11:57;101039.86;;;24.99;35.62
73245;BME280;61460;41.158;-73.238;2022-08-01T02:14:28;101039.96;;;24.98;35.53
73245;BME280;61460;41.158;-73.238;2022-08-01T02:16:58;101043.43;;;24.86;35.45
73245;BME280;61460;41.158;-73.238;2022-08-01T02:19:28;101049.12;;;24.90;35.27
73245;BME280;61460;41.158;-73.238;2022-08-01T02:22:01;101051.20;;;24.76;35.30
73245;BME280;61460;41.158;-73.238;2022-08-01T02:24:35;101057.23;;;24.79;35.22
73245;BME280;61460;41.158;-73.238;2022-08-01T02:27:05;101054.06;;;24.53;35.60
73245;BME280;61460;41.158;-73.238;2022-08-01T02:29:36;101056.20;;;24.44;35.59
73245;BME280;61460;41.158;-73.238;2022-08-01T02:32:03;101052.30;;;24.36;35.63
73245;BME280;61460;41.158;-73.238;2022-08-01T02:34:33;101046.44;;;24.38;35.38
73245;BME280;61460;41.158;-73.238;2022-08-01T02:37:03;101039.70;;;24.30;35.32
73245;BME280;61460;41.158;-73.238;2022-08-01T02:39:36;101025.72;;;24.21;35.42
73245;BME280;61460;41.158;-73.238;2022-08-01T02:42:06;101022.65;;;24.25;35.35
73245;BME280;61460;41.158;-73.238;2022-08-01T02:44:38;101013.20;;;24.16;35.58
73245;BME280;61460;41.158;-73.238;2022-08-01T02:47:07;101003.88;;;24.04;35.75
73245;BME280;61460;41.158;-73.238;2022-08-01T02:49:41;100996.59;;;24.04;36.30
73245;BME280;61460;41.158;-73.238;2022-08-01T02:52:09;101001.25;;;23.97;36.77
73245;BME280;61460;41.158;-73.238;2022-08-01T02:54:38;100996.72;;;23.85;36.91
73245;BME280;61460;41.158;-73.238;2022-08-01T02:57:09;101004.97;;;23.88;37.15
73245;BME280;61460;41.158;-73.238;2022-08-01T02:59:39;101006.16;;;23.88;37.13
73245;BME280;61460;41.158;-73.238;2022-08-01T03:02:10;101005.83;;;23.73;37.46
73245;BME280;61460;41.158;-73.238;2022-08-01T03:04:41;101006.56;;;23.78;37.43
73245;BME280;61460;41.158;-73.238;2022-08-01T03:07:11;101006.40;;;23.72;37.62
73245;BME280;61460;41.158;-73.238;2022-08-01T03:09:44;101007.21;;;23.65;37.96
73245;BME280;61460;41.158;-73.238;2022-08-01T03:12:15;101001.50;;;23.70;38.07
73245;BME280;61460;41.158;-73.238;2022-08-01T03:14:45;100997.78;;;23.68;38.28
73245;BME280;61460;41.158;-73.238;2022-08-01T03:17:14;100995.50;;;23.53;38.61
73245;BME280;61460;41.158;-73.238;2022-08-01T03:19:45;100993.73;;;23.54;38.69
73245;BME280;61460;41.158;-73.238;2022-08-01T03:22:16;100995.78;;;23.54;38.76
73245;BME280;61460;41.158;-73.238;2022-08-01T03:24:52;100996.31;;;23.61;38.33
73245;BME280;61460;41.158;-73.238;2022-08-01T03:27:17;100997.30;;;23.70;42.55
73245;BME280;61460;41.158;-73.238;2022-08-01T03:29:47;100999.65;;;24.29;42.46
73245;BME280;61460;41.158;-73.238;2022-08-01T03:32:18;100990.49;;;24.72;41.53
73245;BME280;61460;41.158;-73.238;2022-08-01T03:34:48;100981.45;;;24.95;41.08
73245;BME280;61460;41.158;-73.238;2022-08-01T03:37:23;100971.38;;;25.08;40.88
73245;BME280;61460;41.158;-73.238;2022-08-01T03:39:54;100976.89;;;24.96;45.18
73245;BME280;61460;41.158;-73.238;2022-08-01T03:42:24;100980.48;;;24.64;45.42
73245;BME280;61460;41.158;-73.238;2022-08-01T03:44:54;100974.59;;;24.41;44.30
73245;BME280;61460;41.158;-73.238;2022-08-01T03:47:26;100961.66;;;24.34;43.30
73245;BME280;61460;41.158;-73.238;2022-08-01T03:49:52;100963.79;;;24.20;42.54
73245;BME280;61460;41.158;-73.238;2022-08-01T03:52:23;100964.48;;;24.16;41.68
73245;BME280;61460;41.158;-73.238;2022-08-01T03:54:55;100960.82;;;24.10;41.05
73245;BME280;61460;41.158;-73.238;2022-08-01T03:57:24;100955.85;;;23.99;40.48
73245;BME280;61460;41.158;-73.238;2022-08-01T03:59:55;100952.83;;;23.85;40.09
73245;BME280;61460;41.158;-73.238;2022-08-01T04:02:26;100949.73;;;23.81;39.71
73245;BME280;61460;41.158;-73.238;2022-08-01T04:04:56;100948.32;;;23.91;39.16
73245;BME280;61460;41.158;-73.238;2022-08-01T04:07:28;100945.96;;;23.82;42.89
73245;BME280;61460;41.158;-73.238;2022-08-01T04:09:57;100942.74;;;24.21;43.85
73245;BME280;61460;41.158;-73.238;2022-08-01T04:12:27;100947.47;;;24.67;43.49
73245;BME280;61460;41.158;-73.238;2022-08-01T04:14:58;100943.66;;;24.91;42.26
73245;BME280;61460;41.158;-73.238;2022-08-01T04:17:29;100935.00;;;25.10;41.81
73245;BME280;61460;41.158;-73.238;2022-08-01T04:19:59;100942.98;;;25.09;44.27
73245;BME280;61460;41.158;-73.238;2022-08-01T04:22:30;100946.02;;;24.79;44.63
73245;BME280;61460;41.158;-73.238;2022-08-01T04:25:03;100938.99;;;24.45;43.27
73245;BME280;61460;41.158;-73.238;2022-08-01T04:27:36;100936.55;;;24.33;41.93
73245;BME280;61460;41.158;-73.238;2022-08-01T04:30:03;100932.02;;;24.23;40.57
73245;BME280;61460;41.158;-73.238;2022-08-01T04:32:35;100926.63;;;24.10;44.14
73245;BME280;61460;41.158;-73.238;2022-08-01T04:35:07;100932.26;;;24.58;44.03
73245;BME280;61460;41.158;-73.238;2022-08-01T04:37:35;100925.85;;;25.02;43.46
73245;BME280;61460;41.158;-73.238;2022-08-01T04:40:07;100922.19;;;25.12;42.89
73245;BME280;61460;41.158;-73.238;2022-08-01T04:42:35;100915.67;;;25.29;42.31
73245;BME280;61460;41.158;-73.238;2022-08-01T04:45:08;100915.22;;;25.13;45.83
73245;BME280;61460;41.158;-73.238;2022-08-01T04:47:37;100920.08;;;24.78;44.97
73245;BME280;61460;41.158;-73.238;2022-08-01T04:50:09;100919.15;;;24.65;43.43
73245;BME280;61460;41.158;-73.238;2022-08-01T04:52:38;100920.43;;;24.39;42.47
73245;BME280;61460;41.158;-73.238;2022-08-01T04:55:09;100913.16;;;24.35;41.14
73245;BME280;61460;41.158;-73.238;2022-08-01T04:57:41;100915.92;;;24.29;40.03
73245;BME280;61460;41.158;-73.238;2022-08-01T05:00:10;100912.28;;;24.05;41.34
73245;BME280;61460;41.158;-73.238;2022-08-01T05:02:40;100909.31;;;24.27;43.99
73245;BME280;61460;41.158;-73.238;2022-08-01T05:05:11;100903.29;;;24.69;43.21
73245;BME280;61460;41.158;-73.238;2022-08-01T05:07:42;100905.18;;;24.89;42.78
73245;BME280;61460;41.158;-73.238;2022-08-01T05:10:12;100901.44;;;25.16;42.13
73245;BME280;61460;41.158;-73.238;2022-08-01T05:12:43;100903.19;;;25.15;42.82
73245;BME280;61460;41.158;-73.238;2022-08-01T05:15:14;100903.35;;;24.93;45.15
73245;BME280;61460;41.158;-73.238;2022-08-01T05:17:44;100901.05;;;24.64;44.03
73245;BME280;61460;41.158;-73.238;2022-08-01T05:20:15;100897.46;;;24.31;43.12
73245;BME280;61460;41.158;-73.238;2022-08-01T05:22:45;100897.99;;;23.95;42.33
73245;BME280;61460;41.158;-73.238;2022-08-01T05:25:16;100900.43;;;23.78;41.49
73245;BME280;61460;41.158;-73.238;2022-08-01T05:27:47;100896.09;;;23.93;40.60
73245;BME280;61460;41.158;-73.238;2022-08-01T05:30:17;100898.87;;;23.82;44.74
73245;BME280;61460;41.158;-73.238;2022-08-01T05:32:48;100890.20;;;24.38;43.98
73245;BME280;61460;41.158;-73.238;2022-08-01T05:35:18;100899.95;;;24.77;43.05
73245;BME280;61460;41.158;-73.238;2022-08-01T05:37:49;100900.33;;;24.99;42.64
73245;BME280;61460;41.158;-73.238;2022-08-01T05:40:20;100898.43;;;25.15;42.29
73245;BME280;61460;41.158;-73.238;2022-08-01T05:42:50;100892.88;;;24.69;46.45
73245;BME280;61460;41.158;-73.238;2022-08-01T05:45:21;100888.32;;;24.39;45.13
73245;BME280;61460;41.158;-73.238;2022-08-01T05:47:52;100875.88;;;24.07;43.86
73245;BME280;61460;41.158;-73.238;2022-08-01T05:50:22;100864.91;;;24.03;44.51
73245;BME280;61460;41.158;-73.238;2022-08-01T05:52:53;100861.51;;;24.27;46.51
73245;BME280;61460;41.158;-73.238;2022-08-01T05:55:24;100862.09;;;24.70;45.43
73245;BME280;61460;41.158;-73.238;2022-08-01T05:57:54;100859.56;;;24.99;44.67
73245;BME280;61460;41.158;-73.238;2022-08-01T06:00:25;100862.04;;;25.16;44.22
73245;BME280;61460;41.158;-73.238;2022-08-01T06:02:56;100865.28;;;25.14;45.16
73245;BME280;61460;41.158;-73.238;2022-08-01T06:05:26;100866.82;;;24.80;46.90
73245;BME280;61460;41.158;-73.238;2022-08-01T06:07:58;100866.85;;;24.54;45.62
73245;BME280;61460;41.158;-73.238;2022-08-01T06:10:28;100867.56;;;24.43;44.05
73245;BME280;61460;41.158;-73.238;2022-08-01T06:12:58;100864.34;;;24.23;42.81
73245;BME280;61460;41.158;-73.238;2022-08-01T06:15:29;100857.22;;;24.09;46.50
73245;BME280;61460;41.158;-73.238;2022-08-01T06:18:00;100856.36;;;24.52;46.35
73245;BME280;61460;41.158;-73.238;2022-08-01T06:20:30;100859.46;;;24.87;45.82
73245;BME280;61460;41.158;-73.238;2022-08-01T06:23:01;100862.09;;;25.10;45.02
73245;BME280;61460;41.158;-73.238;2022-08-01T06:25:32;100862.01;;;25.24;44.48
73245;BME280;61460;41.158;-73.238;2022-08-01T06:28:03;100864.64;;;25.04;48.13
73245;BME280;61460;41.158;-73.238;2022-08-01T06:30:33;100853.89;;;24.73;46.91
73245;BME280;61460;41.158;-73.238;2022-08-01T06:33:04;100849.92;;;24.42;45.25
73245;BME280;61460;41.158;-73.238;2022-08-01T06:35:34;100848.43;;;24.20;44.06
73245;BME280;61460;41.158;-73.238;2022-08-01T06:38:06;100851.21;;;24.18;43.31
73245;BME280;61460;41.158;-73.238;2022-08-01T06:40:35;100855.41;;;24.19;46.73
73245;BME280;61460;41.158;-73.238;2022-08-01T06:43:06;100855.05;;;24.63;45.98
73245;BME280;61460;41.158;-73.238;2022-08-01T06:45:37;100858.61;;;24.84;45.64
73245;BME280;61460;41.158;-73.238;2022-08-01T06:48:07;100862.17;;;25.00;45.10
73245;BME280;61460;41.158;-73.238;2022-08-01T06:50:38;100860.07;;;25.30;44.40
73245;BME280;61460;41.158;-73.238;2022-08-01T06:53:09;100864.88;;;24.95;47.66
73245;BME280;61460;41.158;-73.238;2022-08-01T06:55:39;100858.09;;;24.38;47.12
73245;BME280;61460;41.158;-73.238;2022-08-01T06:58:10;100855.64;;;24.25;45.58
73245;BME280;61460;41.158;-73.238;2022-08-01T07:00:41;100863.20;;;24.27;47.76
73245;BME280;61460;41.158;-73.238;2022-08-01T07:03:11;100870.55;;;24.23;48.43
73245;BME280;61460;41.158;-73.238;2022-08-01T07:05:42;100874.81;;;24.17;46.64
73245;BME280;61460;41.158;-73.238;2022-08-01T07:08:13;100873.94;;;24.13;44.88
73245;BME280;61460;41.158;-73.238;2022-08-01T07:10:43;100873.25;;;24.02;48.72
73245;BME280;61460;41.158;-73.238;2022-08-01T07:13:14;100884.68;;;24.45;48.18
73245;BME280;61460;41.158;-73.238;2022-08-01T07:15:44;100887.54;;;24.83;47.44
73245;BME280;61460;41.158;-73.238;2022-08-01T07:18:15;100883.05;;;25.00;47.19
73245;BME280;61460;41.158;-73.238;2022-08-01T07:20:45;100885.98;;;25.16;47.69
73245;BME280;61460;41.158;-73.238;2022-08-01T07:23:16;100875.94;;;25.10;50.00
73245;BME280;61460;41.158;-73.238;2022-08-01T07:25:47;100873.26;;;24.59;49.62
73245;BME280;61460;41.158;-73.238;2022-08-01T07:28:17;100878.18;;;24.31;47.82
73245;BME280;61460;41.158;-73.238;2022-08-01T07:30:48;100883.84;;;24.18;46.17
73245;BME280;61460;41.158;-73.238;2022-08-01T07:33:19;100885.79;;;24.10;46.91
73245;BME280;61460;41.158;-73.238;2022-08-01T07:35:49;100895.16;;;24.35;48.65
73245;BME280;61460;41.158;-73.238;2022-08-01T07:38:21;100908.27;;;24.88;47.46
73245;BME280;61460;41.158;-73.238;2022-08-01T07:40:51;100907.62;;;25.02;48.27
73245;BME280;61460;41.158;-73.238;2022-08-01T07:43:21;100898.83;;;25.10;47.18
73245;BME280;61460;41.158;-73.238;2022-08-01T07:45:52;100893.88;;;25.25;46.78
73245;BME280;61460;41.158;-73.238;2022-08-01T07:48:23;100904.66;;;24.75;49.01
73245;BME280;61460;41.158;-73.238;2022-08-01T07:50:54;100908.35;;;24.37;47.72
73245;BME280;61460;41.158;-73.238;2022-08-01T07:53:24;100911.56;;;24.24;45.92
73245;BME280;61460;41.158;-73.238;2022-08-01T07:55:55;100928.02;;;24.17;45.33
73245;BME280;61460;41.158;-73.238;2022-08-01T07:58:25;100930.76;;;24.39;48.16
73245;BME280;61460;41.158;-73.238;2022-08-01T08:00:57;100944.55;;;24.67;47.75
73245;BME280;61460;41.158;-73.238;2022-08-01T08:03:27;100943.95;;;25.06;47.68
73245;BME280;61460;41.158;-73.238;2022-08-01T08:05:57;100948.10;;;25.16;49.28
73245;BME280;61460;41.158;-73.238;2022-08-01T08:08:28;100935.34;;;25.26;46.50
73245;BME280;61460;41.158;-73.238;2022-08-01T08:10:59;100927.00;;;24.93;49.46
73245;BME280;61460;41.158;-73.238;2022-08-01T08:13:29;100928.31;;;24.48;48.01
73245;BME280;61460;41.158;-73.238;2022-08-01T08:16:00;100929.57;;;24.20;46.22
73245;BME280;61460;41.158;-73.238;2022-08-01T08:18:31;100926.28;;;24.20;46.35
73245;BME280;61460;41.158;-73.238;2022-08-01T08:21:01;100921.68;;;24.46;48.21
73245;BME280;61460;41.158;-73.238;2022-08-01T08:23:32;100920.19;;;24.78;47.88
73245;BME280;61460;41.158;-73.238;2022-08-01T08:26:03;100927.71;;;25.09;48.21
73245;BME280;61460;41.158;-73.238;2022-08-01T08:28:33;100931.73;;;25.23;48.74
73245;BME280;61460;41.158;-73.238;2022-08-01T08:31:04;100936.08;;;25.25;47.44
73245;BME280;61460;41.158;-73.238;2022-08-01T08:33:35;100928.48;;;24.96;49.55
73245;BME280;61460;41.158;-73.238;2022-08-01T08:36:05;100919.46;;;24.48;48.18
73245;BME280;61460;41.158;-73.238;2022-08-01T08:38:36;100916.80;;;24.38;46.28
73245;BME280;61460;41.158;-73.238;2022-08-01T08:41:07;100907.90;;;24.35;46.66
73245;BME280;61460;41.158;-73.238;2022-08-01T08:43:37;100909.33;;;24.40;48.88
73245;BME280;61460;41.158;-73.238;2022-08-01T08:46:08;100903.38;;;24.67;49.01
73245;BME280;61460;41.158;-73.238;2022-08-01T08:48:41;100903.97;;;25.10;49.35
73245;BME280;61460;41.158;-73.238;2022-08-01T08:51:10;100912.15;;;25.18;51.36
73245;BME280;61460;41.158;-73.238;2022-08-01T08:53:41;100912.14;;;25.26;48.24
73245;BME280;61460;41.158;-73.238;2022-08-01T08:56:12;100907.91;;;24.81;50.04
73245;BME280;61460;41.158;-73.238;2022-08-01T08:58:44;100898.90;;;24.35;48.41
73245;BME280;61460;41.158;-73.238;2022-08-01T09:01:12;100898.52;;;24.15;46.60
73245;BME280;61460;41.158;-73.238;2022-08-01T09:03:44;100901.78;;;24.19;46.20
73245;BME280;61460;41.158;-73.238;2022-08-01T09:06:13;100904.74;;;24.29;48.75
73245;BME280;61460;41.158;-73.238;2022-08-01T09:08:44;100911.93;;;24.74;48.81
73245;BME280;61460;41.158;-73.238;2022-08-01T09:11:14;100906.86;;;24.99;49.57
73245;BME280;61460;41.158;-73.238;2022-08-01T09:16:16;100908.39;;;25.31;47.26
73245;BME280;61460;41.158;-73.238;2022-08-01T09:18:46;100905.49;;;24.72;50.66
73245;BME280;61460;41.158;-73.238;2022-08-01T09:21:20;100899.03;;;24.53;48.60
73245;BME280;61460;41.158;-73.238;2022-08-01T09:23:50;100891.55;;;24.29;46.81
73245;BME280;61460;41.158;-73.238;2022-08-01T09:26:20;100884.21;;;24.26;46.37
73245;BME280;61460;41.158;-73.238;2022-08-01T09:28:49;100881.99;;;24.31;49.22
73245;BME280;61460;41.158;-73.238;2022-08-01T09:31:20;100873.74;;;24.62;49.80
73245;BME280;61460;41.158;-73.238;2022-08-01T09:33:52;100863.36;;;25.09;48.64
73245;BME280;61460;41.158;-73.238;2022-08-01T09:36:23;100862.37;;;25.19;48.76
73245;BME280;61460;41.158;-73.238;2022-08-01T09:38:53;100860.08;;;25.21;47.67
73245;BME280;61460;41.158;-73.238;2022-08-01T09:41:29;100853.90;;;24.81;48.56
73245;BME280;61460;41.158;-73.238;2022-08-01T09:43:53;100845.57;;;24.26;47.36
73245;BME280;61460;41.158;-73.238;2022-08-01T09:46:24;100847.31;;;24.19;45.59
73245;BME280;61460;41.158;-73.238;2022-08-01T09:48:56;100857.68;;;23.95;44.48
73245;BME280;61460;41.158;-73.238;2022-08-01T09:51:30;100864.75;;;23.60;43.68
73245;BME280;61460;41.158;-73.238;2022-08-01T09:53:56;100864.50;;;23.57;42.74
73245;BME280;61460;41.158;-73.238;2022-08-01T09:56:26;100859.62;;;23.45;41.88
73245;BME280;61460;41.158;-73.238;2022-08-01T09:58:58;100852.84;;;23.27;41.40
73245;BME280;61460;41.158;-73.238;2022-08-01T10:01:29;100852.99;;;23.23;40.93
73245;BME280;61460;41.158;-73.238;2022-08-01T10:04:05;100849.88;;;23.06;40.61
73245;BME280;61460;41.158;-73.238;2022-08-01T10:06:29;100843.11;;;23.08;40.15
73245;BME280;61460;41.158;-73.238;2022-08-01T10:09:00;100845.69;;;22.94;40.02
73245;BME280;61460;41.158;-73.238;2022-08-01T10:11:31;100840.41;;;22.97;39.79
73245;BME280;61460;41.158;-73.238;2022-08-01T10:14:01;100846.84;;;22.74;39.88
73245;BME280;61460;41.158;-73.238;2022-08-01T10:16:34;100834.66;;;22.74;39.53
73245;BME280;61460;41.158;-73.238;2022-08-01T10:19:05;100827.10;;;22.63;39.37
73245;BME280;61460;41.158;-73.238;2022-08-01T10:21:34;100827.65;;;22.48;39.42
73245;BME280;61460;41.158;-73.238;2022-08-01T10:24:05;100832.02;;;22.50;39.26
73245;BME280;61460;41.158;-73.238;2022-08-01T10:26:35;100842.22;;;22.54;42.10
73245;BME280;61460;41.158;-73.238;2022-08-01T10:29:05;100846.82;;;23.01;42.85
73245;BME280;61460;41.158;-73.238;2022-08-01T10:31:36;100845.41;;;23.56;42.34
73245;BME280;61460;41.158;-73.238;2022-08-01T10:34:06;100849.34;;;23.92;41.72
73245;BME280;61460;41.158;-73.238;2022-08-01T10:36:37;100853.00;;;24.18;43.35
73245;BME280;61460;41.158;-73.238;2022-08-01T10:39:10;100844.43;;;24.36;42.99
73245;BME280;61460;41.158;-73.238;2022-08-01T10:41:38;100841.37;;;24.45;45.46
73245;BME280;61460;41.158;-73.238;2022-08-01T10:44:09;100833.36;;;24.65;43.21
73245;BME280;61460;41.158;-73.238;2022-08-01T10:46:44;100830.40;;;24.73;43.44
73245;BME280;61460;41.158;-73.238;2022-08-01T10:49:13;100832.99;;;24.83;42.68
73245;BME280;61460;41.158;-73.238;2022-08-01T10:51:41;100827.43;;;24.90;43.15
73245;BME280;61460;41.158;-73.238;2022-08-01T10:54:12;100824.76;;;24.98;43.30
73245;BME280;61460;41.158;-73.238;2022-08-01T10:56:45;100820.89;;;25.00;42.39
73245;BME280;61460;41.158;-73.238;2022-08-01T10:59:19;100821.40;;;25.13;42.78
73245;BME280;61460;41.158;-73.238;2022-08-01T11:04:14;100814.63;;;25.17;45.16
73245;BME280;61460;41.158;-73.238;2022-08-01T11:06:53;100811.08;;;25.24;43.02
73245;BME280;61460;41.158;-73.238;2022-08-01T11:09:23;100806.60;;;25.17;43.49
73245;BME280;61460;41.158;-73.238;2022-08-01T11:14:16;100793.52;;;25.28;43.77
73245;BME280;61460;41.158;-73.238;2022-08-01T11:16:47;100797.31;;;25.39;43.59
73245;BME280;61460;41.158;-73.238;2022-08-01T11:19:18;100791.27;;;25.42;43.73
73245;BME280;61460;41.158;-73.238;2022-08-01T11:29:20;100780.68;;;25.61;44.07
73245;BME280;61460;41.158;-73.238;2022-08-01T11:31:51;100780.14;;;25.65;44.23
73245;BME280;61460;41.158;-73.238;2022-08-01T11:39:23;100785.65;;;25.78;44.54
73245;BME280;61460;41.158;-73.238;2022-08-01T11:41:53;100787.11;;;25.79;44.78
73245;BME280;61460;41.158;-73.238;2022-08-01T11:44:24;100781.71;;;25.85;45.02
73245;BME280;61460;41.158;-73.238;2022-08-01T11:46:58;100776.82;;;25.89;45.07
73245;BME280;61460;41.158;-73.238;2022-08-01T11:49:29;100774.67;;;25.90;45.50
73245;BME280;61460;41.158;-73.238;2022-08-01T11:51:59;100772.81;;;25.95;45.74
73245;BME280;61460;41.158;-73.238;2022-08-01T11:54:28;100775.02;;;25.94;45.71
73245;BME280;61460;41.158;-73.238;2022-08-01T11:56:59;100768.31;;;25.98;46.01
73245;BME280;61460;41.158;-73.238;2022-08-01T11:59:28;100768.94;;;26.01;45.90
73245;BME280;61460;41.158;-73.238;2022-08-01T12:01:59;100771.43;;;26.05;45.84
73245;BME280;61460;41.158;-73.238;2022-08-01T12:09:30;100772.63;;;26.11;46.48
73245;BME280;61460;41.158;-73.238;2022-08-01T12:12:01;100768.34;;;26.16;46.39
73245;BME280;61460;41.158;-73.238;2022-08-01T12:14:32;100768.52;;;26.16;46.56
73245;BME280;61460;41.158;-73.238;2022-08-01T12:17:03;100768.00;;;26.23;48.25
73245;BME280;61460;41.158;-73.238;2022-08-01T12:19:33;100767.73;;;26.24;46.90
73245;BME280;61460;41.158;-73.238;2022-08-01T12:22:06;100769.29;;;26.26;46.70
73245;BME280;61460;41.158;-73.238;2022-08-01T12:24:35;100767.43;;;26.27;47.00
73245;BME280;61460;41.158;-73.238;2022-08-01T12:27:06;100764.84;;;26.30;46.94
73245;BME280;61460;41.158;-73.238;2022-08-01T12:29:38;100758.64;;;26.31;46.88
73245;BME280;61460;41.158;-73.238;2022-08-01T12:34:37;100756.66;;;26.35;46.73
73245;BME280;61460;41.158;-73.238;2022-08-01T12:37:08;100751.21;;;26.38;46.48
73245;BME280;61460;41.158;-73.238;2022-08-01T12:39:39;100743.02;;;26.37;46.47
73245;BME280;61460;41.158;-73.238;2022-08-01T12:42:09;100743.93;;;26.42;46.60
73245;BME280;61460;41.158;-73.238;2022-08-01T12:44:43;100741.28;;;26.38;48.20
73245;BME280;61460;41.158;-73.238;2022-08-01T12:47:11;100737.14;;;26.47;47.36
73245;BME280;61460;41.158;-73.238;2022-08-01T12:49:43;100737.56;;;26.47;47.25
73245;BME280;61460;41.158;-73.238;2022-08-01T12:52:12;100735.74;;;26.48;47.14
73245;BME280;61460;41.158;-73.238;2022-08-01T12:57:21;100735.64;;;26.60;49.30
73245;BME280;61460;41.158;-73.238;2022-08-01T12:59:44;100735.62;;;26.72;49.07
73245;BME280;61460;41.158;-73.238;2022-08-01T13:02:14;100735.01;;;26.72;49.63
73245;BME280;61460;41.158;-73.238;2022-08-01T13:04:49;100736.48;;;26.78;48.87
73245;BME280;61460;41.158;-73.238;2022-08-01T13:07:15;100732.67;;;26.89;48.95
73245;BME280;61460;41.158;-73.238;2022-08-01T13:09:49;100725.04;;;26.94;49.35
73245;BME280;61460;41.158;-73.238;2022-08-01T13:12:17;100722.74;;;27.05;49.05
73245;BME280;61460;41.158;-73.238;2022-08-01T13:14:48;100723.54;;;26.99;48.67
73245;BME280;61460;41.158;-73.238;2022-08-01T13:19:49;100711.69;;;27.12;49.16
73245;BME280;61460;41.158;-73.238;2022-08-01T13:22:19;100713.12;;;27.17;48.77
73245;BME280;61460;41.158;-73.238;2022-08-01T13:24:50;100712.57;;;27.13;48.79
73245;BME280;61460;41.158;-73.238;2022-08-01T13:27:21;100709.58;;;27.16;49.31
73245;BME280;61460;41.158;-73.238;2022-08-01T13:29:51;100704.28;;;27.16;49.13
73245;BME280;61460;41.158;-73.238;2022-08-01T13:32:22;100707.40;;;27.23;48.99
73245;BME280;61460;41.158;-73.238;2022-08-01T13:35:01;100703.72;;;27.20;48.62
73245;BME280;61460;41.158;-73.238;2022-08-01T13:37:23;100705.06;;;27.24;48.36
73245;BME280;61460;41.158;-73.238;2022-08-01T13:39:54;100706.77;;;27.24;48.75
73245;BME280;61460;41.158;-73.238;2022-08-01T13:42:25;100703.53;;;27.24;48.70
73245;BME280;61460;41.158;-73.238;2022-08-01T13:44:55;100702.34;;;27.28;48.60
73245;BME280;61460;41.158;-73.238;2022-08-01T13:47:26;100698.43;;;27.30;48.87
73245;BME280;61460;41.158;-73.238;2022-08-01T13:49:57;100705.00;;;27.31;48.70
73245;BME280;61460;41.158;-73.238;2022-08-01T13:52:28;100700.47;;;27.36;48.49
73245;BME280;61460;41.158;-73.238;2022-08-01T13:54:58;100698.77;;;27.38;48.74
73245;BME280;61460;41.158;-73.238;2022-08-01T13:57:29;100698.89;;;27.34;48.90
73245;BME280;61460;41.158;-73.238;2022-08-01T13:59:59;100697.88;;;27.35;48.83
73245;BME280;61460;41.158;-73.238;2022-08-01T14:02:30;100695.28;;;27.38;48.75
73245;BME280;61460;41.158;-73.238;2022-08-01T14:05:02;100695.75;;;27.41;49.08
73245;BME280;61460;41.158;-73.238;2022-08-01T14:07:31;100694.38;;;27.44;49.16
73245;BME280;61460;41.158;-73.238;2022-08-01T14:10:02;100688.26;;;27.60;49.20
73245;BME280;61460;41.158;-73.238;2022-08-01T14:12:33;100689.80;;;27.51;48.92
73245;BME280;61460;41.158;-73.238;2022-08-01T14:15:04;100685.98;;;27.53;48.84
73245;BME280;61460;41.158;-73.238;2022-08-01T14:17:34;100686.25;;;27.56;49.25
73245;BME280;61460;41.158;-73.238;2022-08-01T14:20:05;100676.58;;;27.59;48.81
73245;BME280;61460;41.158;-73.238;2022-08-01T14:22:35;100679.25;;;27.53;49.17
73245;BME280;61460;41.158;-73.238;2022-08-01T14:25:07;100677.23;;;27.58;49.30
73245;BME280;61460;41.158;-73.238;2022-08-01T14:27:36;100677.22;;;27.65;49.45
73245;BME280;61460;41.158;-73.238;2022-08-01T14:30:08;100676.29;;;27.53;49.33
73245;BME280;61460;41.158;-73.238;2022-08-01T14:32:38;100671.07;;;27.70;49.40
73245;BME280;61460;41.158;-73.238;2022-08-01T14:35:08;100664.23;;;27.76;49.36
73245;BME280;61460;41.158;-73.238;2022-08-01T14:37:39;100664.41;;;27.77;49.10
73245;BME280;61460;41.158;-73.238;2022-08-01T14:40:10;100664.57;;;27.86;49.24
73245;BME280;61460;41.158;-73.238;2022-08-01T14:42:40;100660.20;;;27.88;49.32
73245;BME280;61460;41.158;-73.238;2022-08-01T14:45:12;100662.20;;;27.85;49.41
73245;BME280;61460;41.158;-73.238;2022-08-01T14:47:42;100660.96;;;27.73;49.50
73245;BME280;61460;41.158;-73.238;2022-08-01T14:50:14;100654.89;;;27.70;48.45